Etusivu
METAR-TAF:

METAR-TAF

Lentoasemat :

Area_Regional_Airport

South Haven, Michigan, Yhdysvallat

Leveyspiiri: 42-21-03N, Pituuspiiri: 086-15-22W, korkeus merenpinnasta: 203 m

Tämänhetkinen sää

Tämä raportti tehtiin 15 minuuttia sitten, kello 02.57 UTC
Tuuli 4 kn idästä
Lämpötila 4°C
Kosteus 70%
Ilmanpaine 1011 hPa
Näkyvyys: 16.1 km
Hajanaisia pilviä 4100 ft:n korkeudessa
Pilvistä 4900 ft:n korkeudessa

METAR: KLWA 250257Z AUTO 08004KT 10SM SCT041 OVC049 04/M01 A2986 RMK AO2 T00361011

Aika: 22:12 (03:12 UTC)


TAF: puuttuu

Säähavainnot ja -ennusteet yli 4000 lentoasemalta (METAR- ja TAF-raportit).

Käytössä olevat sääasemat on merkitty karttaan keltaisilla ja punaisilla pisteillä.

Aseta hiiri pisteen päälle nähdäksesi sääaseman nimen.

Klikkaa sitten nähdäksesi säähavainnot ja -ennusteet.

Kartan vaihtaminen: klikkaa mustalla rastilla varustettuja vihreitä pisteitä, niin voit zoomata sisään; viivalla varustettua vihreää pistettä, niin voit zoomata ulos tai vihreitä nuolia, niin pääset viereisille kartoille.


METAR-TAF: